Dades meteomassalio
Diari Summary for Setembre 16, 2017 Units:  Metric    English   Both
« Previous Day
Next Day »
Diari Semanal Mensual Anual Personalitzat
  Maxima: Minima: Mijana:
Temperatura: 20.0 °C 5.0 °C 12.7 °C
Rosada: 9.9 °C 1.8 °C 5.3 °C
Humitat: 83 % 40 % 63 %
Velocitat del vent: 33.3 km/h 0.0 km/h 14.6 km/h
Racha vent: 33.3 km/h - -
Vent:- - SSW
Pressio: 1020.5 hPa 1016.5 hPa -
Pluja: 0.0 mm    
Historical Graphs
 
 
Tabular Data for Setembre 16, 2017
Time Temperature Dew Point Pressure Wind Wind Speed Wind Gust Humidity Rainfall Rate (Hourly) solar Conditions
00:04 10.0 °C 5.9 °C 1018.5 hPa South 11.1 km/h 11.1 km/h 76 % 0.0 mm 0.0 W/m2 RA
00:09 10.0 °C 5.8 °C 1018.5 hPa SSW 18.5 km/h 18.5 km/h 75 % 0.0 mm 0.0 W/m2 CLR
00:14 10.0 °C 5.8 °C 1018.5 hPa South 14.8 km/h 14.8 km/h 75 % 0.0 mm 0.0 W/m2 CLR
00:19 10.0 °C 5.6 °C 1018.5 hPa SSW 18.5 km/h 18.5 km/h 74 % 0.0 mm 0.0 W/m2 CLR
00:24 10.0 °C 5.6 °C 1018.5 hPa SW 16.7 km/h 16.7 km/h 74 % 0.0 mm 0.0 W/m2 CLR
00:29 10.0 °C 5.4 °C 1018.5 hPa SSW 14.8 km/h 14.8 km/h 73 % 0.0 mm 0.0 W/m2 CLR
00:34 10.0 °C 5.4 °C 1018.5 hPa SSW 14.8 km/h 14.8 km/h 73 % 0.0 mm 0.0 W/m2 CLR
00:39 10.0 °C 5.2 °C 1018.5 hPa SW 17.7 km/h 17.7 km/h 72 % 0.0 mm 0.0 W/m2 CLR
00:41 10.0 °C 5.2 °C 1018.5 hPa SW 18.5 km/h 18.5 km/h 72 % 0.0 mm 0.0 W/m2 CLR
00:46 10.6 °C 5.7 °C 1018.5 hPa SSW 14.8 km/h 14.8 km/h 72 % 0.0 mm 0.0 W/m2 CLR
00:51 10.6 °C 5.7 °C 1018.5 hPa SSW 16.7 km/h 16.7 km/h 72 % 0.0 mm 0.0 W/m2 CLR
00:56 10.6 °C 5.7 °C 1018.5 hPa SSW 18.5 km/h 18.5 km/h 72 % 0.0 mm 0.0 W/m2 CLR
01:01 10.0 °C 5.2 °C 1018.5 hPa South 5.6 km/h 5.6 km/h 72 % 0.0 mm 0.0 W/m2 CLR
01:06 10.0 °C 5.4 °C 1018.5 hPa South 3.7 km/h   73 % 0.0 mm 0.0 W/m2 CLR
01:11 10.0 °C 5.6 °C 1018.5 hPa SE 5.6 km/h 5.6 km/h 74 % 0.0 mm 0.0 W/m2 CLR
01:16 9.4 °C 5.2 °C 1018.5 hPa Calm     75 % 0.0 mm 0.0 W/m2 CLR
01:21 9.4 °C 5.4 °C 1018.5 hPa SSE 1.9 km/h   76 % 0.0 mm 0.0 W/m2 CLR
01:26 9.4 °C 5.6 °C 1018.2 hPa Calm     77 % 0.0 mm 0.0 W/m2 CLR
01:31 9.4 °C 5.8 °C 1018.2 hPa Calm     78 % 0.0 mm 0.0 W/m2 CLR
01:36 9.4 °C 5.8 °C 1018.2 hPa Calm     78 % 0.0 mm 0.0 W/m2 CLR
01:41 8.9 °C 5.3 °C 1018.2 hPa SSE 3.7 km/h 3.7 km/h 78 % 0.0 mm 0.0 W/m2 CLR
01:46 8.3 °C 4.7 °C 1018.2 hPa SSE 5.6 km/h 5.6 km/h 78 % 0.0 mm 0.0 W/m2 CLR
01:51 8.3 °C 4.6 °C 1018.2 hPa SSW 6.4 km/h 6.4 km/h 77 % 0.0 mm 0.0 W/m2 CLR
01:56 8.3 °C 4.3 °C 1018.2 hPa SSW 12.9 km/h 12.9 km/h 76 % 0.0 mm 0.0 W/m2 CLR
02:01 8.3 °C 4.2 °C 1018.2 hPa South 16.7 km/h 16.7 km/h 75 % 0.0 mm 0.0 W/m2 CLR
02:02 8.3 °C 4.2 °C 1018.2 hPa SSW 16.7 km/h 16.7 km/h 75 % 0.0 mm 0.0 W/m2 CLR
02:07 8.3 °C 4.2 °C 1018.2 hPa SSW 13.0 km/h 13.0 km/h 75 % 0.0 mm 0.0 W/m2 CLR
02:12 8.3 °C 4.2 °C 1018.2 hPa SSW 16.7 km/h 16.7 km/h 75 % 0.0 mm 0.0 W/m2 CLR
02:17 8.3 °C 3.9 °C 1018.2 hPa SSW 13.0 km/h 13.0 km/h 74 % 0.0 mm 0.0 W/m2 CLR
02:22 8.9 °C 4.5 °C 1018.2 hPa SSW 14.8 km/h 14.8 km/h 74 % 0.0 mm 0.0 W/m2 CLR
02:23 8.9 °C 4.5 °C 1018.2 hPa SSW 14.8 km/h 14.8 km/h 74 % 0.0 mm 0.0 W/m2 CLR
02:28 9.4 °C 5.1 °C 1018.2 hPa SSW 14.8 km/h 14.8 km/h 74 % 0.0 mm 0.0 W/m2 CLR
02:33 9.4 °C 5.1 °C 1018.2 hPa SSW 16.7 km/h 16.7 km/h 74 % 0.0 mm 0.0 W/m2 CLR
02:38 9.4 °C 5.2 °C 1018.2 hPa SSW 14.5 km/h 14.5 km/h 75 % 0.0 mm 0.0 W/m2 CLR
02:43 9.4 °C 5.1 °C 1018.2 hPa SW 18.5 km/h 18.5 km/h 74 % 0.0 mm 0.0 W/m2 CLR
02:48 9.4 °C 5.1 °C 1018.2 hPa South 14.5 km/h 14.5 km/h 74 % 0.0 mm 0.0 W/m2 CLR
02:53 9.4 °C 5.2 °C 1018.2 hPa SSW 18.5 km/h 18.5 km/h 75 % 0.0 mm 0.0 W/m2 CLR
02:58 9.4 °C 5.1 °C 1018.2 hPa South 16.7 km/h 16.7 km/h 74 % 0.0 mm 0.0 W/m2 CLR
03:03 9.4 °C 5.1 °C 1018.2 hPa SSW 16.7 km/h 16.7 km/h 74 % 0.0 mm 0.0 W/m2 CLR
03:08 9.4 °C 5.1 °C 1018.2 hPa SSW 22.2 km/h 22.2 km/h 74 % 0.0 mm 0.0 W/m2 CLR
03:13 9.4 °C 5.1 °C 1018.2 hPa SSW 16.7 km/h 16.7 km/h 74 % 0.0 mm 0.0 W/m2 CLR
03:18 9.4 °C 5.1 °C 1018.2 hPa SSW 8.0 km/h 8.0 km/h 74 % 0.0 mm 0.0 W/m2 CLR
03:23 8.9 °C 4.7 °C 1018.2 hPa SSW 14.8 km/h 14.8 km/h 75 % 0.0 mm 0.0 W/m2 CLR
03:28 8.9 °C 4.7 °C 1018.2 hPa South 9.3 km/h 9.3 km/h 75 % 0.0 mm 0.0 W/m2 CLR
03:33 8.9 °C 4.7 °C 1017.8 hPa SSW 9.3 km/h 9.3 km/h 75 % 0.0 mm 0.0 W/m2 CLR
03:38 8.9 °C 4.9 °C 1017.8 hPa SSE 11.1 km/h 11.1 km/h 76 % 0.0 mm 0.0 W/m2 CLR
03:43 8.9 °C 4.9 °C 1017.8 hPa SSW 7.4 km/h 7.4 km/h 76 % 0.0 mm 0.0 W/m2 CLR
03:48 8.9 °C 4.9 °C 1017.8 hPa South 9.7 km/h 9.7 km/h 76 % 0.0 mm 0.0 W/m2 CLR
03:58 8.3 °C 4.3 °C 1017.8 hPa South 9.3 km/h 9.3 km/h 76 % 0.0 mm 0.0 W/m2 CLR
04:03 8.9 °C 4.9 °C 1017.8 hPa South 18.5 km/h 18.5 km/h 76 % 0.0 mm 0.0 W/m2 CLR
04:08 8.9 °C 4.9 °C 1017.8 hPa SSE 11.1 km/h 11.1 km/h 76 % 0.0 mm 0.0 W/m2 CLR
04:13 8.9 °C 4.9 °C 1017.8 hPa SW 16.7 km/h 16.7 km/h 76 % 0.0 mm 0.0 W/m2 CLR
04:18 8.3 °C 4.3 °C 1017.8 hPa South 18.5 km/h 18.5 km/h 76 % 0.0 mm 0.0 W/m2 CLR
04:23 8.3 °C 4.3 °C 1017.5 hPa South 14.8 km/h 14.8 km/h 76 % 0.0 mm 0.0 W/m2 CLR
04:28 8.9 °C 4.7 °C 1017.5 hPa South 16.7 km/h 16.7 km/h 75 % 0.0 mm 0.0 W/m2 CLR
04:33 8.9 °C 4.7 °C 1017.5 hPa South 16.7 km/h 16.7 km/h 75 % 0.0 mm 0.0 W/m2 CLR
04:38 8.9 °C 4.9 °C 1017.5 hPa SSW 18.5 km/h 18.5 km/h 76 % 0.0 mm 0.0 W/m2 CLR
04:43 8.3 °C 4.3 °C 1017.5 hPa SSE 16.7 km/h 16.7 km/h 76 % 0.0 mm 0.0 W/m2 CLR
04:48 8.3 °C 4.3 °C 1017.5 hPa South 13.0 km/h 13.0 km/h 76 % 0.0 mm 0.0 W/m2 CLR
04:53 8.3 °C 4.3 °C 1017.5 hPa South 16.7 km/h 16.7 km/h 76 % 0.0 mm 0.0 W/m2 CLR
04:58 8.3 °C 4.3 °C 1017.5 hPa SSW 16.7 km/h 16.7 km/h 76 % 0.0 mm 0.0 W/m2 CLR
05:03 8.9 °C 5.1 °C 1017.5 hPa SSE 16.7 km/h 16.7 km/h 77 % 0.0 mm 0.0 W/m2 CLR
05:08 8.9 °C 5.3 °C 1017.8 hPa SSE 11.1 km/h 11.1 km/h 78 % 0.0 mm 0.0 W/m2 CLR
05:13 8.9 °C 5.4 °C 1017.8 hPa SE 9.3 km/h 9.3 km/h 79 % 0.0 mm 0.0 W/m2 CLR
05:18 8.9 °C 5.6 °C 1017.8 hPa SSE 16.7 km/h 16.7 km/h 80 % 0.0 mm 0.0 W/m2 CLR
05:21 8.9 °C 5.6 °C 1017.8 hPa SSE 18.5 km/h 18.5 km/h 80 % 0.0 mm 0.0 W/m2 CLR
05:26 8.3 °C 5.1 °C 1017.8 hPa SSE 7.4 km/h 7.4 km/h 80 % 0.0 mm 0.0 W/m2 CLR
05:31 8.3 °C 5.1 °C 1017.8 hPa SSE 7.4 km/h 7.4 km/h 80 % 0.0 mm 0.0 W/m2 CLR
05:36 7.8 °C 4.6 °C 1017.8 hPa South 9.3 km/h 9.3 km/h 80 % 0.0 mm 0.0 W/m2 CLR
05:41 7.2 °C 4.0 °C 1017.8 hPa SSE 11.1 km/h 11.1 km/h 80 % 0.0 mm 0.0 W/m2 CLR
05:46 7.2 °C 4.0 °C 1017.8 hPa SSE 5.6 km/h 5.6 km/h 80 % 0.0 mm 0.0 W/m2 CLR
05:51 6.7 °C 3.4 °C 1017.8 hPa SSE 5.6 km/h 5.6 km/h 80 % 0.0 mm 0.0 W/m2 CLR
05:56 6.7 °C 3.6 °C 1017.8 hPa SSE 5.6 km/h 5.6 km/h 81 % 0.0 mm 0.0 W/m2 CLR
06:01 6.7 °C 3.6 °C 1017.8 hPa SE 3.2 km/h 3.2 km/h 81 % 0.0 mm 0.0 W/m2 CLR
06:06 6.7 °C 3.6 °C 1017.8 hPa SE 11.3 km/h 11.3 km/h 81 % 0.0 mm 0.0 W/m2 CLR
06:11 6.7 °C 3.6 °C 1017.8 hPa SE 6.4 km/h 6.4 km/h 81 % 0.0 mm 0.0 W/m2 CLR
06:16 6.7 °C 3.6 °C 1017.8 hPa SE 5.6 km/h 5.6 km/h 81 % 0.0 mm 0.0 W/m2 CLR
06:21 6.7 °C 3.6 °C 1017.8 hPa SSE 7.4 km/h 7.4 km/h 81 % 0.0 mm 0.0 W/m2 CLR
06:26 6.1 °C 3.3 °C 1017.8 hPa South 9.3 km/h 9.3 km/h 82 % 0.0 mm 0.0 W/m2 CLR
06:31 6.1 °C 3.1 °C 1017.8 hPa South 11.1 km/h 11.1 km/h 81 % 0.0 mm 0.0 W/m2 CLR
06:36 6.1 °C 3.1 °C 1017.8 hPa South 11.3 km/h 11.3 km/h 81 % 0.0 mm 0.0 W/m2 CLR
06:41 5.6 °C 2.4 °C 1017.8 hPa South 13.0 km/h 13.0 km/h 80 % 0.0 mm 0.0 W/m2 CLR
06:46 5.6 °C 2.4 °C 1017.8 hPa South 12.9 km/h 12.9 km/h 80 % 0.0 mm 0.0 W/m2 CLR
06:51 5.6 °C 2.4 °C 1017.8 hPa South 9.3 km/h 9.3 km/h 80 % 0.0 mm 0.0 W/m2 CLR
06:56 5.6 °C 2.4 °C 1018.2 hPa SSE 9.3 km/h 9.3 km/h 80 % 0.0 mm 0.0 W/m2 CLR
07:01 5.6 °C 2.4 °C 1018.2 hPa SSE 7.4 km/h 7.4 km/h 80 % 0.0 mm 0.0 W/m2 CLR
07:06 5.6 °C 2.6 °C 1017.8 hPa SSE 9.7 km/h 9.7 km/h 81 % 0.0 mm 0.0 W/m2 CLR
07:11 5.0 °C 2.2 °C 1018.2 hPa SSE 9.3 km/h 9.3 km/h 82 % 0.0 mm 0.0 W/m2 CLR
07:16 5.0 °C 2.3 °C 1017.8 hPa South 6.4 km/h 6.4 km/h 83 % 0.0 mm 0.0 W/m2 CLR
07:21 5.0 °C 2.2 °C 1018.2 hPa South 9.3 km/h 9.3 km/h 82 % 0.0 mm 0.0 W/m2 CLR
07:26 5.0 °C 2.0 °C 1018.2 hPa SSE 14.8 km/h 14.8 km/h 81 % 0.0 mm 0.0 W/m2 CLR
07:31 5.0 °C 2.0 °C 1018.2 hPa SSE 5.6 km/h 5.6 km/h 81 % 0.0 mm 0.0 W/m2 OVC
07:36 5.0 °C 2.0 °C 1018.2 hPa SE 5.6 km/h 5.6 km/h 81 % 0.0 mm 0.0 W/m2 OVC
07:41 5.0 °C 2.2 °C 1018.2 hPa SE 5.6 km/h 5.6 km/h 82 % 0.0 mm 0.0 W/m2 OVC
07:46 5.0 °C 2.2 °C 1018.2 hPa SE 7.4 km/h 7.4 km/h 82 % 0.0 mm 7.0 W/m2 BKN
07:51 5.0 °C 2.3 °C 1018.2 hPa SSE 11.1 km/h 11.1 km/h 83 % 0.0 mm 12.0 W/m2 BKN
07:56 5.0 °C 2.3 °C 1018.2 hPa SSE 9.3 km/h 9.3 km/h 83 % 0.0 mm 16.0 W/m2 BKN
08:06 5.0 °C 2.3 °C 1018.2 hPa SE 9.7 km/h 9.7 km/h 83 % 0.0 mm 21.0 W/m2 BKN
08:11 5.0 °C 2.3 °C 1018.5 hPa SSE 9.7 km/h 9.7 km/h 83 % 0.0 mm 28.0 W/m2 BKN
08:16 5.0 °C 2.2 °C 1018.5 hPa SSE 9.3 km/h 9.3 km/h 82 % 0.0 mm 47.0 W/m2 BKN
08:21 5.6 °C 2.6 °C 1018.5 hPa South 9.3 km/h 9.3 km/h 81 % 0.0 mm 51.0 W/m2 SCT
08:26 5.6 °C 2.6 °C 1018.5 hPa SSE 11.1 km/h 11.1 km/h 81 % 0.0 mm 42.0 W/m2 BKN
08:31 5.6 °C 2.4 °C 1018.5 hPa South 9.7 km/h 9.7 km/h 80 % 0.0 mm 40.0 W/m2 BKN
08:36 6.1 °C 2.7 °C 1018.5 hPa SSE 9.7 km/h 9.7 km/h 79 % 0.0 mm 47.0 W/m2 BKN
08:41 6.7 °C 3.3 °C 1018.5 hPa SSE 7.4 km/h 7.4 km/h 79 % 0.0 mm 121.0 W/m2 CLR
08:46 7.2 °C 3.7 °C 1018.5 hPa SSE 11.1 km/h 11.1 km/h 78 % 0.0 mm 120.0 W/m2 FEW
08:51 7.8 °C 4.2 °C 1018.5 hPa SSE 11.1 km/h 11.1 km/h 78 % 0.0 mm 163.0 W/m2 CLR
08:56 8.3 °C 4.6 °C 1018.5 hPa South 7.4 km/h 7.4 km/h 77 % 0.0 mm 165.0 W/m2 CLR
09:01 8.9 °C 5.1 °C 1018.5 hPa SSE 5.6 km/h 5.6 km/h 77 % 0.0 mm 183.0 W/m2 CLR
09:06 9.4 °C 5.4 °C 1018.5 hPa SSE 5.6 km/h 5.6 km/h 76 % 0.0 mm 229.0 W/m2 CLR
09:11 10.0 °C 5.8 °C 1018.8 hPa Calm     75 % 0.0 mm 167.0 W/m2 CLR
09:16 10.6 °C 6.1 °C 1018.8 hPa Calm     74 % 0.0 mm 155.0 W/m2 CLR
09:21 10.6 °C 5.5 °C 1018.8 hPa SSW 14.8 km/h 14.8 km/h 71 % 0.0 mm 195.0 W/m2 CLR
09:26 10.6 °C 5.7 °C 1018.8 hPa SSW 16.7 km/h 16.7 km/h 72 % 0.0 mm 67.0 W/m2 CLR
09:32 10.6 °C 5.7 °C 1018.8 hPa South 13.0 km/h 13.0 km/h 72 % 0.0 mm 84.0 W/m2 FEW
09:37 10.6 °C 5.5 °C 1018.8 hPa SSW 12.9 km/h 12.9 km/h 71 % 0.0 mm 121.0 W/m2 FEW
09:42 11.1 °C 6.1 °C 1018.8 hPa SSE 14.8 km/h 14.8 km/h 71 % 0.0 mm 294.0 W/m2 CLR
09:47 11.1 °C 6.1 °C 1018.8 hPa SSW 13.0 km/h 13.0 km/h 71 % 0.0 mm 248.0 W/m2 CLR
09:52 11.7 °C 6.6 °C 1019.2 hPa South 8.0 km/h 8.0 km/h 71 % 0.0 mm 352.0 W/m2 CLR
09:57 11.7 °C 6.6 °C 1019.2 hPa SSW 13.0 km/h 13.0 km/h 71 % 0.0 mm 367.0 W/m2 CLR
10:02 11.7 °C 6.4 °C 1019.2 hPa South 17.7 km/h 17.7 km/h 70 % 0.0 mm 385.0 W/m2 CLR
10:07 12.2 °C 6.7 °C 1019.2 hPa South 13.0 km/h 13.0 km/h 69 % 0.0 mm 399.0 W/m2 CLR
10:12 12.2 °C 6.9 °C 1019.2 hPa SSW 20.4 km/h 20.4 km/h 70 % 0.0 mm 413.0 W/m2 CLR
10:17 12.8 °C 7.4 °C 1019.2 hPa SW 18.5 km/h 18.5 km/h 70 % 0.0 mm 425.0 W/m2 CLR
10:22 12.8 °C 7.4 °C 1019.5 hPa SSW 16.7 km/h 16.7 km/h 70 % 0.0 mm 443.0 W/m2 CLR
10:27 12.8 °C 7.0 °C 1019.5 hPa WSW 19.3 km/h 19.3 km/h 68 % 0.0 mm 459.0 W/m2 CLR
10:32 13.3 °C 7.6 °C 1019.5 hPa SW 24.1 km/h 24.1 km/h 68 % 0.0 mm 473.0 W/m2 CLR
10:37 13.3 °C 7.8 °C 1019.5 hPa SW 18.5 km/h 18.5 km/h 69 % 0.0 mm 487.0 W/m2 CLR
10:42 13.3 °C 7.6 °C 1019.5 hPa SW 18.5 km/h 18.5 km/h 68 % 0.0 mm 508.0 W/m2 CLR
10:47 13.3 °C 7.6 °C 1019.5 hPa SW 18.5 km/h 18.5 km/h 68 % 0.0 mm 527.0 W/m2 CLR
10:52 13.9 °C 7.8 °C 1019.5 hPa WSW 20.9 km/h 20.9 km/h 67 % 0.0 mm 557.0 W/m2 CLR
10:57 13.9 °C 8.3 °C 1019.5 hPa SW 20.4 km/h 20.4 km/h 69 % 0.0 mm 550.0 W/m2 CLR
11:02 13.9 °C 7.8 °C 1019.5 hPa WSW 18.5 km/h 18.5 km/h 67 % 0.0 mm 557.0 W/m2 CLR
11:07 13.9 °C 7.8 °C 1019.2 hPa WSW 18.5 km/h 18.5 km/h 67 % 0.0 mm 573.0 W/m2 CLR
11:12 14.4 °C 8.2 °C 1019.2 hPa SW 24.1 km/h 24.1 km/h 66 % 0.0 mm 585.0 W/m2 CLR
11:17 14.4 °C 8.4 °C 1019.2 hPa SSW 22.2 km/h 22.2 km/h 67 % 0.0 mm 594.0 W/m2 CLR
11:22 14.4 °C 8.4 °C 1019.2 hPa SW 20.4 km/h 20.4 km/h 67 % 0.0 mm 605.0 W/m2 CLR
11:27 14.4 °C 7.9 °C 1019.2 hPa SSW 18.5 km/h 18.5 km/h 65 % 0.0 mm 619.0 W/m2 CLR
11:32 15.0 °C 8.4 °C 1019.2 hPa WSW 13.0 km/h 13.0 km/h 65 % 0.0 mm 628.0 W/m2 CLR
11:37 15.0 °C 8.0 °C 1019.2 hPa SSW 3.7 km/h 3.7 km/h 63 % 0.0 mm 640.0 W/m2 CLR
11:42 15.6 °C 9.0 °C 1019.2 hPa SW 18.5 km/h 18.5 km/h 65 % 0.0 mm 650.0 W/m2 CLR
11:47 15.0 °C 8.4 °C 1019.2 hPa SSW 25.9 km/h 25.9 km/h 65 % 0.0 mm 657.0 W/m2 CLR
11:52 15.0 °C 8.0 °C 1018.8 hPa SSW 22.2 km/h 22.2 km/h 63 % 0.0 mm 668.0 W/m2 CLR
11:57 15.6 °C 8.6 °C 1018.8 hPa SSW 22.5 km/h 22.5 km/h 63 % 0.0 mm 677.0 W/m2 CLR
12:02 15.6 °C 8.3 °C 1018.8 hPa South 20.4 km/h 20.4 km/h 62 % 0.0 mm 689.0 W/m2 CLR
12:07 16.1 °C 9.8 °C 1018.8 hPa SSW 20.4 km/h 20.4 km/h 66 % 0.0 mm 703.0 W/m2 CLR
12:12 16.1 °C 9.5 °C 1018.8 hPa SW 13.0 km/h 13.0 km/h 65 % 0.0 mm 708.0 W/m2 CLR
12:17 16.7 °C 9.3 °C 1018.8 hPa WSW 16.7 km/h 16.7 km/h 62 % 0.0 mm 714.0 W/m2 CLR
12:22 16.1 °C 8.8 °C 1018.5 hPa Calm     62 % 0.0 mm 759.0 W/m2 CLR
12:27 16.7 °C 8.9 °C 1018.5 hPa SW 18.5 km/h 18.5 km/h 60 % 0.0 mm 738.0 W/m2 CLR
12:32 17.2 °C 9.4 °C 1018.5 hPa SW 24.1 km/h 24.1 km/h 60 % 0.0 mm 738.0 W/m2 CLR
12:37 17.2 °C 9.9 °C 1018.5 hPa SW 18.5 km/h 18.5 km/h 62 % 0.0 mm 731.0 W/m2 CLR
12:42 17.2 °C 9.4 °C 1018.5 hPa SSW 33.3 km/h 33.3 km/h 60 % 0.0 mm 788.0 W/m2 CLR
12:47 17.2 °C 8.9 °C 1018.5 hPa SSW 18.5 km/h 18.5 km/h 58 % 0.0 mm 786.0 W/m2 CLR
12:52 17.2 °C 9.4 °C 1018.5 hPa WSW 18.5 km/h 18.5 km/h 60 % 0.0 mm 779.0 W/m2 CLR
12:57 17.8 °C 9.7 °C 1018.5 hPa SSW 24.1 km/h 24.1 km/h 59 % 0.0 mm 821.0 W/m2 CLR
13:02 17.8 °C 9.4 °C 1018.5 hPa SW 27.8 km/h 27.8 km/h 58 % 0.0 mm 821.0 W/m2 CLR
13:07 17.2 °C 9.1 °C 1018.2 hPa SW 16.7 km/h 16.7 km/h 59 % 0.0 mm 283.0 W/m2 CLR
13:12 17.2 °C 8.6 °C 1018.2 hPa WSW 18.5 km/h 18.5 km/h 57 % 0.0 mm 179.0 W/m2 CLR
13:17 17.2 °C 8.4 °C 1018.5 hPa WSW 18.5 km/h 18.5 km/h 56 % 0.0 mm 802.0 W/m2 CLR
13:22 17.2 °C 8.9 °C 1018.2 hPa West 18.5 km/h 18.5 km/h 58 % 0.0 mm 803.0 W/m2 CLR
13:27 17.8 °C 8.3 °C 1018.2 hPa SSW 14.8 km/h 14.8 km/h 54 % 0.0 mm 789.0 W/m2 CLR
13:32 17.8 °C 8.1 °C 1018.2 hPa SW 31.5 km/h 31.5 km/h 53 % 0.0 mm 793.0 W/m2 CLR
13:37 18.3 °C 8.6 °C 1018.2 hPa South 20.4 km/h 20.4 km/h 53 % 0.0 mm 791.0 W/m2 CLR
13:42 18.3 °C 8.6 °C 1018.2 hPa West 20.4 km/h 20.4 km/h 53 % 0.0 mm 791.0 W/m2 CLR
13:47 18.3 °C 8.3 °C 1017.8 hPa SSW 18.5 km/h 18.5 km/h 52 % 0.0 mm 793.0 W/m2 CLR
13:52 17.8 °C 7.8 °C 1017.8 hPa SW 24.1 km/h 24.1 km/h 52 % 0.0 mm 796.0 W/m2 CLR
13:57 18.3 °C 7.7 °C 1017.8 hPa West 24.1 km/h 24.1 km/h 50 % 0.0 mm 800.0 W/m2 CLR
14:02 18.9 °C 8.2 °C 1017.8 hPa South 20.4 km/h 20.4 km/h 50 % 0.0 mm 800.0 W/m2 CLR
14:07 18.3 °C 7.4 °C 1017.5 hPa WSW 18.5 km/h 18.5 km/h 49 % 0.0 mm 800.0 W/m2 CLR
14:12 18.9 °C 7.6 °C 1017.5 hPa SW 18.5 km/h 18.5 km/h 48 % 0.0 mm 800.0 W/m2 CLR
14:17 18.9 °C 7.3 °C 1017.5 hPa SW 18.5 km/h 18.5 km/h 47 % 0.0 mm 777.0 W/m2 CLR
14:18 18.9 °C 7.3 °C 1017.5 hPa WSW 18.5 km/h 18.5 km/h 47 % 0.0 mm 777.0 W/m2 CLR
14:23 18.9 °C 8.2 °C 1017.5 hPa WSW 18.5 km/h 18.5 km/h 50 % 0.0 mm 791.0 W/m2 CLR
14:28 18.9 °C 7.6 °C 1017.5 hPa SSW 24.1 km/h 24.1 km/h 48 % 0.0 mm 793.0 W/m2 CLR
14:33 19.4 °C 7.2 °C 1017.5 hPa South 20.4 km/h 20.4 km/h 45 % 0.0 mm 803.0 W/m2 CLR
14:38 18.9 °C 7.3 °C 1017.5 hPa SW 20.4 km/h 20.4 km/h 47 % 0.0 mm 687.0 W/m2 CLR
14:43 18.9 °C 7.0 °C 1017.5 hPa West 24.1 km/h 24.1 km/h 46 % 0.0 mm 786.0 W/m2 CLR
14:48 19.4 °C 7.5 °C 1017.5 hPa WNW 20.4 km/h 20.4 km/h 46 % 0.0 mm 793.0 W/m2 CLR
14:53 18.9 °C 6.4 °C 1017.2 hPa West 22.2 km/h 22.2 km/h 44 % 0.0 mm 770.0 W/m2 CLR
14:58 18.9 °C 7.3 °C 1017.5 hPa WSW 27.8 km/h 27.8 km/h 47 % 0.0 mm 763.0 W/m2 CLR
15:03 19.4 °C 7.2 °C 1017.2 hPa WSW 22.2 km/h 22.2 km/h 45 % 0.0 mm 758.0 W/m2 CLR
15:08 18.9 °C 6.7 °C 1017.2 hPa SW 22.2 km/h 22.2 km/h 45 % 0.0 mm 752.0 W/m2 CLR
15:13 18.9 °C 7.0 °C 1017.2 hPa SW 27.8 km/h 27.8 km/h 46 % 0.0 mm 747.0 W/m2 CLR
15:18 19.4 °C 7.2 °C 1017.2 hPa WSW 24.1 km/h 24.1 km/h 45 % 0.0 mm 737.0 W/m2 CLR
15:23 19.4 °C 6.9 °C 1017.2 hPa WSW 18.5 km/h 18.5 km/h 44 % 0.0 mm 731.0 W/m2 CLR
15:28 20.0 °C 7.1 °C 1017.2 hPa SW 24.1 km/h 24.1 km/h 43 % 0.0 mm 724.0 W/m2 CLR
15:33 19.4 °C 6.9 °C 1017.2 hPa SW 22.5 km/h 22.5 km/h 44 % 0.0 mm 719.0 W/m2 CLR
15:38 19.4 °C 6.9 °C 1016.8 hPa WSW 20.9 km/h 20.9 km/h 44 % 0.0 mm 712.0 W/m2 CLR
15:43 20.0 °C 7.1 °C 1016.8 hPa WSW 27.8 km/h 27.8 km/h 43 % 0.0 mm 705.0 W/m2 CLR
15:48 20.0 °C 8.0 °C 1016.8 hPa West 22.2 km/h 22.2 km/h 46 % 0.0 mm 673.0 W/m2 CLR
15:53 19.4 °C 7.2 °C 1016.8 hPa SW 18.5 km/h 18.5 km/h 45 % 0.0 mm 661.0 W/m2 CLR
15:58 19.4 °C 7.2 °C 1016.8 hPa SW 25.9 km/h 25.9 km/h 45 % 0.0 mm 679.0 W/m2 CLR
16:03 20.0 °C 7.4 °C 1016.8 hPa SW 20.9 km/h 20.9 km/h 44 % 0.0 mm 670.0 W/m2 CLR
16:08 20.0 °C 7.4 °C 1016.8 hPa WSW 18.5 km/h 18.5 km/h 44 % 0.0 mm 666.0 W/m2 CLR
16:13 18.9 °C 6.4 °C 1016.8 hPa WSW 20.4 km/h 20.4 km/h 44 % 0.0 mm 666.0 W/m2 CLR
16:18 19.4 °C 5.8 °C 1016.8 hPa West 24.1 km/h 24.1 km/h 41 % 0.0 mm 606.0 W/m2 CLR
16:23 19.4 °C 6.6 °C 1016.8 hPa WSW 20.9 km/h 20.9 km/h 43 % 0.0 mm 643.0 W/m2 CLR
16:28 19.4 °C 6.9 °C 1016.5 hPa WSW 24.1 km/h 24.1 km/h 44 % 0.0 mm 541.0 W/m2 CLR
16:33 19.4 °C 7.2 °C 1016.5 hPa WSW 22.2 km/h 22.2 km/h 45 % 0.0 mm 638.0 W/m2 CLR
16:38 19.4 °C 6.2 °C 1016.5 hPa WSW 24.1 km/h 24.1 km/h 42 % 0.0 mm 613.0 W/m2 CLR
16:43 20.0 °C 7.1 °C 1016.5 hPa SW 18.5 km/h 18.5 km/h 43 % 0.0 mm 519.0 W/m2 CLR
16:48 20.0 °C 6.3 °C 1016.5 hPa WSW 22.2 km/h 22.2 km/h 41 % 0.0 mm 541.0 W/m2 CLR
16:53 19.4 °C 6.6 °C 1016.5 hPa WSW 24.1 km/h 24.1 km/h 43 % 0.0 mm 462.0 W/m2 CLR
16:58 19.4 °C 6.2 °C 1016.5 hPa West 20.4 km/h 20.4 km/h 42 % 0.0 mm 279.0 W/m2 CLR
17:03 18.3 °C 5.2 °C 1016.5 hPa WNW 27.8 km/h 27.8 km/h 42 % 0.0 mm 373.0 W/m2 CLR
17:08 18.3 °C 5.8 °C 1016.5 hPa WSW 16.7 km/h 16.7 km/h 44 % 0.0 mm 336.0 W/m2 CLR
17:13 18.9 °C 6.1 °C 1016.5 hPa WSW 24.1 km/h 24.1 km/h 43 % 0.0 mm 566.0 W/m2 CLR
17:18 18.3 °C 5.8 °C 1016.5 hPa WSW 25.7 km/h 25.7 km/h 44 % 0.0 mm 301.0 W/m2 CLR
17:23 18.3 °C 6.2 °C 1016.5 hPa WNW 18.5 km/h 18.5 km/h 45 % 0.0 mm 432.0 W/m2 CLR
17:33 18.9 °C 6.4 °C 1016.5 hPa West 19.3 km/h 19.3 km/h 44 % 0.0 mm 311.0 W/m2 CLR
17:38 18.9 °C 6.1 °C 1016.5 hPa WSW 18.5 km/h 18.5 km/h 43 % 0.0 mm 434.0 W/m2 CLR
17:43 18.9 °C 6.1 °C 1016.5 hPa West 16.1 km/h 16.1 km/h 43 % 0.0 mm 253.0 W/m2 CLR
17:48 18.9 °C 6.1 °C 1016.5 hPa West 24.1 km/h 24.1 km/h 43 % 0.0 mm 422.0 W/m2 CLR
17:53 18.9 °C 6.1 °C 1016.5 hPa West 20.4 km/h 20.4 km/h 43 % 0.0 mm 390.0 W/m2 CLR
17:58 18.9 °C 6.1 °C 1016.5 hPa West 17.7 km/h 17.7 km/h 43 % 0.0 mm 366.0 W/m2 CLR
18:03 19.4 °C 5.8 °C 1016.5 hPa West 18.5 km/h 18.5 km/h 41 % 0.0 mm 343.0 W/m2 CLR
18:08 18.9 °C 5.3 °C 1016.5 hPa West 25.9 km/h 25.9 km/h 41 % 0.0 mm 323.0 W/m2 CLR
18:13 18.9 °C 5.3 °C 1016.5 hPa WSW 22.2 km/h 22.2 km/h 41 % 0.0 mm 306.0 W/m2 CLR
18:18 18.9 °C 5.0 °C 1016.5 hPa WSW 22.2 km/h 22.2 km/h 40 % 0.0 mm 290.0 W/m2 CLR
18:23 18.9 °C 5.0 °C 1016.5 hPa WSW 18.5 km/h 18.5 km/h 40 % 0.0 mm 274.0 W/m2 CLR
18:28 18.9 °C 5.3 °C 1016.5 hPa WSW 22.2 km/h 22.2 km/h 41 % 0.0 mm 255.0 W/m2 CLR
18:34 18.3 °C 4.5 °C 1016.5 hPa WSW 18.5 km/h 18.5 km/h 40 % 0.0 mm 236.0 W/m2 CLR
18:39 18.3 °C 4.8 °C 1016.5 hPa West 16.7 km/h 16.7 km/h 41 % 0.0 mm 220.0 W/m2 CLR
18:44 18.3 °C 4.5 °C 1016.5 hPa WSW 22.2 km/h 22.2 km/h 40 % 0.0 mm 199.0 W/m2 CLR
18:49 18.3 °C 5.5 °C 1016.8 hPa WSW 17.7 km/h 17.7 km/h 43 % 0.0 mm 181.0 W/m2 CLR
18:54 18.3 °C 4.8 °C 1016.8 hPa West 24.1 km/h 24.1 km/h 41 % 0.0 mm 160.0 W/m2 CLR
18:59 18.3 °C 5.2 °C 1016.8 hPa West 18.5 km/h 18.5 km/h 42 % 0.0 mm 142.0 W/m2 CLR
19:04 18.3 °C 4.8 °C 1016.8 hPa West 16.7 km/h 16.7 km/h 41 % 0.0 mm 125.0 W/m2 CLR
19:09 18.3 °C 4.8 °C 1016.8 hPa SW 18.5 km/h 18.5 km/h 41 % 0.0 mm 113.0 W/m2 CLR
19:14 18.3 °C 4.8 °C 1017.2 hPa WSW 18.5 km/h 18.5 km/h 41 % 0.0 mm 90.0 W/m2 CLR
19:19 17.8 °C 4.7 °C 1017.2 hPa WSW 14.8 km/h 14.8 km/h 42 % 0.0 mm 72.0 W/m2 FEW
19:24 17.8 °C 4.7 °C 1017.2 hPa WSW 20.9 km/h 20.9 km/h 42 % 0.0 mm 53.0 W/m2 SCT
19:29 17.8 °C 4.7 °C 1017.2 hPa SW 18.5 km/h 18.5 km/h 42 % 0.0 mm 46.0 W/m2 SCT
19:34 17.8 °C 4.7 °C 1017.2 hPa West 22.2 km/h 22.2 km/h 42 % 0.0 mm 33.0 W/m2 BKN
19:39 17.2 °C 4.5 °C 1017.2 hPa WSW 19.3 km/h 19.3 km/h 43 % 0.0 mm 25.0 W/m2 BKN
19:44 17.2 °C 4.8 °C 1017.2 hPa WSW 13.0 km/h 13.0 km/h 44 % 0.0 mm 18.0 W/m2 BKN
19:54 16.7 °C 5.0 °C 1017.2 hPa WSW 1.9 km/h   46 % 0.0 mm 12.0 W/m2 BKN
19:59 16.7 °C 5.0 °C 1017.5 hPa WSW 7.4 km/h 7.4 km/h 46 % 0.0 mm 9.0 W/m2 BKN
20:04 16.1 °C 4.8 °C 1017.5 hPa SW 1.9 km/h 1.9 km/h 47 % 0.0 mm 7.0 W/m2 BKN
20:09 15.0 °C 4.1 °C 1017.5 hPa SW 13.0 km/h 13.0 km/h 48 % 0.0 mm 0.0 W/m2 OVC
20:14 14.4 °C 3.6 °C 1017.5 hPa WSW 13.0 km/h 13.0 km/h 48 % 0.0 mm 0.0 W/m2 OVC
20:19 13.9 °C 3.1 °C 1017.5 hPa SW 3.7 km/h 3.7 km/h 48 % 0.0 mm 0.0 W/m2 CLR
20:24 13.3 °C 2.8 °C 1017.8 hPa SW 3.7 km/h 3.7 km/h 49 % 0.0 mm 0.0 W/m2 CLR
20:29 13.3 °C 2.8 °C 1017.8 hPa Calm     49 % 0.0 mm 0.0 W/m2 CLR
20:34 12.8 °C 2.6 °C 1017.8 hPa Calm     50 % 0.0 mm 0.0 W/m2 CLR
20:39 12.8 °C 2.3 °C 1017.8 hPa Calm     49 % 0.0 mm 0.0 W/m2 CLR
20:44 12.2 °C 1.8 °C 1017.8 hPa Calm     49 % 0.0 mm 0.0 W/m2 CLR
20:49 12.2 °C 2.4 °C 1018.2 hPa Calm     51 % 0.0 mm 0.0 W/m2 CLR
20:54 11.7 °C 2.1 °C 1018.2 hPa SSW 5.6 km/h 5.6 km/h 52 % 0.0 mm 0.0 W/m2 CLR
20:59 11.7 °C 2.1 °C 1018.5 hPa Calm     52 % 0.0 mm 0.0 W/m2 CLR
21:04 11.7 °C 2.1 °C 1018.5 hPa Calm     52 % 0.0 mm 0.0 W/m2 CLR
21:09 11.7 °C 2.1 °C 1018.5 hPa Calm     52 % 0.0 mm 0.0 W/m2 CLR
21:14 11.7 °C 2.4 °C 1018.8 hPa WSW 9.3 km/h 9.3 km/h 53 % 0.0 mm 0.0 W/m2 CLR
21:19 11.7 °C 2.7 °C 1018.8 hPa WSW 14.8 km/h 14.8 km/h 54 % 0.0 mm 0.0 W/m2 CLR
21:24 12.2 °C 2.9 °C 1018.8 hPa West 18.5 km/h 18.5 km/h 53 % 0.0 mm 0.0 W/m2 CLR
21:29 12.8 °C 3.4 °C 1019.2 hPa SW 13.0 km/h 13.0 km/h 53 % 0.0 mm 0.0 W/m2 CLR
21:34 12.8 °C 3.4 °C 1019.2 hPa SW 1.6 km/h 1.6 km/h 53 % 0.0 mm 0.0 W/m2 CLR
21:39 12.2 °C 3.2 °C 1019.2 hPa SW 13.0 km/h 13.0 km/h 54 % 0.0 mm 0.0 W/m2 CLR
21:44 11.7 °C 2.7 °C 1019.2 hPa SW 4.8 km/h 4.8 km/h 54 % 0.0 mm 0.0 W/m2 CLR
21:49 11.7 °C 2.9 °C 1019.5 hPa SW 9.7 km/h 9.7 km/h 55 % 0.0 mm 0.0 W/m2 CLR
21:54 11.7 °C 3.2 °C 1019.5 hPa SW 9.7 km/h 9.7 km/h 56 % 0.0 mm 0.0 W/m2 CLR
21:59 11.7 °C 3.2 °C 1019.5 hPa SW 13.0 km/h 13.0 km/h 56 % 0.0 mm 0.0 W/m2 CLR
22:04 11.7 °C 3.2 °C 1019.9 hPa SW 14.8 km/h 14.8 km/h 56 % 0.0 mm 0.0 W/m2 CLR
22:09 12.2 °C 3.7 °C 1019.9 hPa SW 9.3 km/h 9.3 km/h 56 % 0.0 mm 0.0 W/m2 CLR
22:14 12.2 °C 3.9 °C 1019.9 hPa SW 11.1 km/h 11.1 km/h 57 % 0.0 mm 0.0 W/m2 CLR
22:19 11.7 °C 3.4 °C 1019.9 hPa SW 11.1 km/h 11.1 km/h 57 % 0.0 mm 0.0 W/m2 CLR
22:24 11.7 °C 3.7 °C 1019.9 hPa SW 5.6 km/h 5.6 km/h 58 % 0.0 mm 0.0 W/m2 CLR
22:29 11.7 °C 3.7 °C 1019.9 hPa SW 9.7 km/h 9.7 km/h 58 % 0.0 mm 0.0 W/m2 CLR
22:34 11.1 °C 3.2 °C 1019.9 hPa SSW 16.7 km/h 16.7 km/h 58 % 0.0 mm 0.0 W/m2 CLR
22:39 11.1 °C 2.9 °C 1019.9 hPa SSW 16.7 km/h 16.7 km/h 57 % 0.0 mm 0.0 W/m2 CLR
22:44 11.1 °C 2.7 °C 1019.9 hPa SSW 14.8 km/h 14.8 km/h 56 % 0.0 mm 0.0 W/m2 CLR
22:49 11.1 °C 2.4 °C 1019.9 hPa SSW 14.8 km/h 14.8 km/h 55 % 0.0 mm 0.0 W/m2 CLR
22:59 11.1 °C 2.7 °C 1019.9 hPa South 14.8 km/h 14.8 km/h 56 % 0.0 mm 0.0 W/m2 CLR
23:04 11.1 °C 2.7 °C 1020.2 hPa SSW 16.7 km/h 16.7 km/h 56 % 0.0 mm 0.0 W/m2 CLR
23:09 11.1 °C 2.9 °C 1020.2 hPa SSW 14.8 km/h 14.8 km/h 57 % 0.0 mm 0.0 W/m2 CLR
23:14 11.1 °C 2.9 °C 1020.2 hPa SSW 9.3 km/h 9.3 km/h 57 % 0.0 mm 0.0 W/m2 CLR
23:19 10.6 °C 2.6 °C 1020.2 hPa South 11.1 km/h 11.1 km/h 58 % 0.0 mm 0.0 W/m2 CLR
23:25 10.6 °C 2.6 °C 1020.2 hPa South 14.8 km/h 14.8 km/h 58 % 0.0 mm 0.0 W/m2 CLR
23:29 10.0 °C 2.3 °C 1020.5 hPa South 11.3 km/h 11.3 km/h 59 % 0.0 mm 0.0 W/m2 CLR
23:35 10.0 °C 2.3 °C 1020.5 hPa SSW 11.3 km/h 11.3 km/h 59 % 0.0 mm 0.0 W/m2 CLR
23:40 9.4 °C 2.1 °C 1020.5 hPa SSW 11.1 km/h 11.1 km/h 60 % 0.0 mm 0.0 W/m2 CLR
23:45 9.4 °C 2.1 °C 1020.5 hPa South 9.3 km/h 9.3 km/h 60 % 0.0 mm 0.0 W/m2 CLR
23:50 10.0 °C 2.8 °C 1020.5 hPa South 16.7 km/h 16.7 km/h 61 % 0.0 mm 0.0 W/m2 CLR
23:55 10.0 °C 2.8 °C 1020.5 hPa South 16.7 km/h 16.7 km/h 61 % 0.0 mm 0.0 W/m2 CLR
Lo Temps de Massalio
Compliments of Weather Underground - 1.25 mb